createdAt,value
2023-05-03T00:00:40.465Z,12.4
2023-05-03T00:01:41.489Z,12.5
2023-05-03T00:02:42.619Z,12.4
2023-05-03T00:03:43.477Z,12.3
2023-05-03T00:04:44.493Z,12.3
2023-05-03T00:05:45.563Z,12.3
2023-05-03T00:06:46.550Z,12.4
2023-05-03T00:07:47.532Z,12.3
2023-05-03T00:08:48.472Z,12.1
2023-05-03T00:09:49.477Z,12.1
2023-05-03T00:10:50.514Z,12.1
2023-05-03T00:11:51.513Z,12.1
2023-05-03T00:12:52.573Z,12.2
2023-05-03T00:13:53.492Z,12.2
2023-05-03T00:14:54.472Z,12.2
2023-05-03T00:15:55.474Z,12.1
2023-05-03T00:16:56.510Z,12.1
2023-05-03T00:17:57.598Z,12
2023-05-03T00:18:58.495Z,12
2023-05-03T00:19:59.719Z,11.9
2023-05-03T00:21:00.499Z,12
2023-05-03T00:22:01.530Z,12
2023-05-03T00:23:02.523Z,12
2023-05-03T00:24:03.532Z,11.9
2023-05-03T00:25:04.494Z,11.8
2023-05-03T00:26:05.514Z,11.7
2023-05-03T00:27:06.490Z,11.7
2023-05-03T00:28:07.492Z,11.7
2023-05-03T00:29:08.505Z,11.6
2023-05-03T00:30:09.551Z,11.6
2023-05-03T00:31:10.590Z,11.6
2023-05-03T00:32:11.537Z,11.7
2023-05-03T00:33:12.516Z,11.6
2023-05-03T00:34:13.526Z,11.5
2023-05-03T00:35:14.482Z,11.5
2023-05-03T00:36:15.546Z,11.5
2023-05-03T00:37:16.543Z,11.5
2023-05-03T00:38:17.497Z,11.4
2023-05-03T00:39:18.481Z,11.4
2023-05-03T00:40:19.545Z,11.3
2023-05-03T00:41:20.538Z,11.3
2023-05-03T00:42:21.492Z,11.3
2023-05-03T00:43:22.475Z,11.3
2023-05-03T00:44:23.516Z,11.3
2023-05-03T00:45:24.523Z,11.3
2023-05-03T00:46:25.536Z,11.4
2023-05-03T00:47:26.533Z,11.5
2023-05-03T00:48:27.501Z,11.5
2023-05-03T00:49:28.977Z,11.6
2023-05-03T00:50:30.957Z,11.7
2023-05-03T00:51:32.542Z,11.8
2023-05-03T00:52:33.496Z,11.7
2023-05-03T00:53:34.505Z,11.7
2023-05-03T00:54:35.505Z,11.8
2023-05-03T00:55:36.657Z,11.8
2023-05-03T00:56:44.235Z,11.9
2023-05-03T00:57:38.519Z,11.9
2023-05-03T00:58:39.496Z,11.9
2023-05-03T00:59:40.543Z,11.8
2023-05-03T01:00:41.536Z,11.8
2023-05-03T01:01:42.516Z,11.8
2023-05-03T01:02:43.579Z,11.8
2023-05-03T01:03:44.611Z,11.8
2023-05-03T01:04:45.564Z,11.8
2023-05-03T01:05:46.536Z,11.7
2023-05-03T01:06:47.648Z,11.6
2023-05-03T01:07:48.538Z,11.5
2023-05-03T01:08:49.614Z,11.4
2023-05-03T01:09:50.553Z,11.5
2023-05-03T01:10:51.439Z,11.4
2023-05-03T01:11:52.585Z,11.5
2023-05-03T01:12:53.533Z,11.5
2023-05-03T01:13:54.536Z,11.6
2023-05-03T01:14:55.514Z,11.7
2023-05-03T01:15:56.535Z,11.7
2023-05-03T01:16:57.537Z,11.8
2023-05-03T01:17:59.603Z,11.8
2023-05-03T01:19:00.514Z,11.8
2023-05-03T01:20:01.788Z,11.9
2023-05-03T01:21:02.484Z,11.8
2023-05-03T01:22:03.598Z,11.8
2023-05-03T01:23:04.499Z,11.8
2023-05-03T01:24:05.512Z,11.8
2023-05-03T01:25:06.517Z,11.7
2023-05-03T01:26:07.458Z,11.7
2023-05-03T01:27:08.896Z,11.7
2023-05-03T01:28:09.532Z,11.7
2023-05-03T01:29:10.632Z,11.6
2023-05-03T01:30:11.622Z,11.6
2023-05-03T01:31:12.583Z,11.6
2023-05-03T01:32:13.541Z,11.6
2023-05-03T01:33:14.520Z,11.6
2023-05-03T01:36:02.804Z,11.6
2023-05-03T01:37:03.536Z,11.7
2023-05-03T01:38:04.557Z,11.7
2023-05-03T01:39:05.554Z,11.7
2023-05-03T01:40:06.735Z,11.6
2023-05-03T01:41:07.550Z,11.6
2023-05-03T01:42:08.536Z,11.6
2023-05-03T01:43:09.553Z,11.4
2023-05-03T01:44:10.523Z,11.4
2023-05-03T01:45:11.565Z,11.4
2023-05-03T01:46:13.030Z,11.5
2023-05-03T01:47:14.563Z,11.5
2023-05-03T01:48:15.546Z,11.6
2023-05-03T01:49:16.603Z,11.5
2023-05-03T01:50:17.523Z,11.6
2023-05-03T01:51:18.536Z,11.6
2023-05-03T01:52:19.556Z,11.6
2023-05-03T01:53:20.548Z,11.6
2023-05-03T01:54:21.645Z,11.6
2023-05-03T01:55:22.565Z,11.6
2023-05-03T01:56:23.542Z,11.5
2023-05-03T01:57:24.539Z,11.4
2023-05-03T01:58:25.493Z,11.2
2023-05-03T01:59:26.557Z,11
2023-05-03T02:00:27.555Z,10.9
2023-05-03T02:01:29.203Z,11
2023-05-03T02:02:30.576Z,10.8
2023-05-03T02:03:31.557Z,10.7
2023-05-03T02:04:32.682Z,10.6
2023-05-03T02:05:33.649Z,10.5
2023-05-03T02:06:34.565Z,10.6
2023-05-03T02:07:35.523Z,10.6
2023-05-03T02:08:36.596Z,10.5
2023-05-03T02:09:37.536Z,10.5
2023-05-03T02:10:38.644Z,10.6
2023-05-03T02:11:39.558Z,10.6
2023-05-03T02:12:40.556Z,10.5
2023-05-03T02:13:41.537Z,10.5
2023-05-03T02:14:42.562Z,10.6
2023-05-03T02:15:43.610Z,10.6
2023-05-03T02:16:44.621Z,10.7
2023-05-03T02:17:45.657Z,10.6
2023-05-03T02:18:46.580Z,10.6
2023-05-03T02:19:47.559Z,10.5
2023-05-03T02:20:48.589Z,10.6
2023-05-03T02:21:49.602Z,10.5
2023-05-03T02:22:50.575Z,10.6
2023-05-03T02:23:51.658Z,10.6
2023-05-03T02:24:52.556Z,10.7
2023-05-03T02:25:53.647Z,10.7
2023-05-03T02:26:54.578Z,10.7
2023-05-03T02:27:55.557Z,10.7
2023-05-03T02:28:56.555Z,10.7
2023-05-03T02:29:57.566Z,10.6
2023-05-03T02:30:58.630Z,10.6
2023-05-03T02:31:59.555Z,10.5
2023-05-03T02:33:00.589Z,10.5
2023-05-03T02:34:01.578Z,10.4
2023-05-03T02:35:02.589Z,10.4
2023-05-03T02:36:03.676Z,10.4
2023-05-03T02:37:05.576Z,10.5
2023-05-03T02:38:06.595Z,10.4
2023-05-03T02:39:07.591Z,10.4
2023-05-03T02:40:08.676Z,10.5
2023-05-03T02:41:10.611Z,10.4
2023-05-03T02:42:11.557Z,10.3
2023-05-03T02:43:12.577Z,10.3
2023-05-03T02:44:13.599Z,10.1
2023-05-03T02:45:14.585Z,10.1
2023-05-03T02:46:15.619Z,10
2023-05-03T02:47:16.560Z,10
2023-05-03T02:48:17.559Z,10
2023-05-03T02:49:18.962Z,10
2023-05-03T02:50:20.572Z,10
2023-05-03T02:51:21.654Z,10
2023-05-03T02:52:22.638Z,10
2023-05-03T02:53:23.613Z,10
2023-05-03T02:54:24.521Z,10
2023-05-03T02:55:25.586Z,9.8
2023-05-03T02:56:26.590Z,9.8
2023-05-03T02:57:27.573Z,9.8
2023-05-03T02:58:28.693Z,9.8
2023-05-03T02:59:29.573Z,9.8
2023-05-03T03:00:30.596Z,9.7
2023-05-03T03:01:31.679Z,9.7
2023-05-03T03:02:32.644Z,9.7
2023-05-03T03:03:33.718Z,9.7
2023-05-03T03:04:34.634Z,9.7
2023-05-03T03:05:35.554Z,9.6
2023-05-03T03:06:36.729Z,9.6
2023-05-03T03:07:37.577Z,9.5
2023-05-03T03:08:38.613Z,9.5
2023-05-03T03:09:39.580Z,9.5
2023-05-03T03:10:40.634Z,9.6
2023-05-03T03:11:41.657Z,9.5
2023-05-03T03:12:42.561Z,9.5
2023-05-03T03:13:43.513Z,9.5
2023-05-03T03:14:44.621Z,9.4
2023-05-03T03:15:45.598Z,9.3
2023-05-03T03:16:46.633Z,9.1
2023-05-03T03:17:47.633Z,9.1
2023-05-03T03:18:48.573Z,9
2023-05-03T03:19:49.594Z,8.9
2023-05-03T03:20:50.599Z,8.9
2023-05-03T03:21:51.637Z,8.9
2023-05-03T03:22:52.626Z,9
2023-05-03T03:23:53.563Z,9
2023-05-03T03:24:54.640Z,9.1
2023-05-03T03:25:55.598Z,9.1
2023-05-03T03:26:57.214Z,9.2
2023-05-03T03:27:59.422Z,9.2
2023-05-03T03:29:00.636Z,9.3
2023-05-03T03:30:01.860Z,9.3
2023-05-03T03:31:02.635Z,9.3
2023-05-03T03:32:03.759Z,9.3
2023-05-03T03:33:04.688Z,9.3
2023-05-03T03:34:05.643Z,9.2
2023-05-03T03:35:06.577Z,9.2
2023-05-03T03:36:07.581Z,9.2
2023-05-03T03:37:08.627Z,9.3
2023-05-03T03:38:10.671Z,9.3
2023-05-03T03:39:11.598Z,9.3
2023-05-03T03:40:12.621Z,9.3
2023-05-03T03:41:13.841Z,9.2
2023-05-03T03:42:14.597Z,9.2
2023-05-03T03:43:15.676Z,9.1
2023-05-03T03:44:16.604Z,9.1
2023-05-03T03:45:17.596Z,8.9
2023-05-03T03:46:18.713Z,8.8
2023-05-03T03:47:19.663Z,8.8
2023-05-03T03:48:20.664Z,8.8
2023-05-03T03:49:21.761Z,8.8
2023-05-03T03:50:22.618Z,8.8
2023-05-03T03:51:23.595Z,8.8
2023-05-03T03:52:24.606Z,8.8
2023-05-03T03:53:25.613Z,8.8
2023-05-03T03:54:26.636Z,8.9
2023-05-03T03:55:27.606Z,8.8
2023-05-03T03:56:28.679Z,8.8
2023-05-03T03:57:29.625Z,8.8
2023-05-03T03:58:31.645Z,8.8
2023-05-03T03:59:32.626Z,8.8
2023-05-03T04:00:33.566Z,8.8
2023-05-03T04:01:34.746Z,8.8
2023-05-03T04:02:35.679Z,8.8
2023-05-03T04:03:36.791Z,8.8
2023-05-03T04:04:37.857Z,8.8
2023-05-03T04:05:38.582Z,8.8
2023-05-03T04:06:40.054Z,8.9
2023-05-03T04:07:41.897Z,8.8
2023-05-03T04:08:43.640Z,8.7
2023-05-03T04:09:44.632Z,8.7
2023-05-03T04:10:45.639Z,8.8
2023-05-03T04:11:47.436Z,8.7
2023-05-03T04:12:48.618Z,8.7
2023-05-03T04:13:49.616Z,8.7
2023-05-03T04:14:50.630Z,8.7
2023-05-03T04:15:51.616Z,8.7
2023-05-03T04:16:52.760Z,8.7
2023-05-03T04:17:53.632Z,8.7
2023-05-03T04:18:54.636Z,8.7
2023-05-03T04:19:55.898Z,8.7
2023-05-03T04:20:57.699Z,8.7
2023-05-03T04:21:58.678Z,8.7
2023-05-03T04:23:00.719Z,8.7
2023-05-03T04:24:01.843Z,8.7
2023-05-03T04:25:02.749Z,8.7
2023-05-03T04:26:04.976Z,8.7
2023-05-03T04:27:04.627Z,8.6
2023-05-03T04:28:05.614Z,8.5
2023-05-03T04:29:06.659Z,8.4
2023-05-03T04:30:07.856Z,8.4
2023-05-03T04:31:08.648Z,8.5
2023-05-03T04:32:09.617Z,8.4
2023-05-03T04:33:10.667Z,8.4
2023-05-03T04:34:11.719Z,8.5
2023-05-03T04:35:12.800Z,8.5
2023-05-03T04:36:13.639Z,8.5
2023-05-03T04:37:14.596Z,8.5
2023-05-03T04:38:15.617Z,8.5
2023-05-03T04:39:16.856Z,8.5
2023-05-03T04:40:17.664Z,8.6
2023-05-03T04:41:18.667Z,8.6
2023-05-03T04:42:19.636Z,8.5
2023-05-03T04:43:20.617Z,8.6
2023-05-03T04:44:21.676Z,8.6
2023-05-03T04:45:22.693Z,8.6
2023-05-03T04:46:23.633Z,8.5
2023-05-03T04:47:24.648Z,8.6
2023-05-03T04:48:25.600Z,8.5
2023-05-03T04:49:31.657Z,8.4
2023-05-03T04:50:32.648Z,8.5
2023-05-03T04:51:33.655Z,8.6
2023-05-03T04:52:34.642Z,8.6
2023-05-03T04:53:35.599Z,8.7
2023-05-03T04:54:36.696Z,8.7
2023-05-03T04:55:37.956Z,8.8
2023-05-03T04:56:38.685Z,8.8
2023-05-03T04:57:39.697Z,8.9
2023-05-03T04:58:40.623Z,8.9
2023-05-03T04:59:41.681Z,8.9
2023-05-03T05:00:42.735Z,8.8
2023-05-03T05:01:43.680Z,8.9
2023-05-03T05:02:44.694Z,8.9
2023-05-03T05:03:45.744Z,8.7
2023-05-03T05:04:46.634Z,8.6
2023-05-03T05:05:47.703Z,8.6
2023-05-03T05:06:48.788Z,8.7
2023-05-03T05:07:49.678Z,8.7
2023-05-03T05:08:50.613Z,8.7
2023-05-03T05:09:51.630Z,8.8
2023-05-03T05:10:52.633Z,8.8
2023-05-03T05:11:55.269Z,8.9
2023-05-03T05:12:54.632Z,8.8
2023-05-03T05:13:55.637Z,8.7
2023-05-03T05:14:56.652Z,8.7
2023-05-03T05:15:57.673Z,8.6
2023-05-03T05:16:58.702Z,8.7
2023-05-03T05:17:59.645Z,8.8
2023-05-03T05:19:00.671Z,8.8
2023-05-03T05:20:02.189Z,8.8
2023-05-03T05:21:03.711Z,8.9
2023-05-03T05:22:04.650Z,8.8
2023-05-03T05:23:05.738Z,8.7
2023-05-03T05:24:06.631Z,8.8
2023-05-03T05:25:07.663Z,8.9
2023-05-03T05:26:08.732Z,8.9
2023-05-03T05:27:09.786Z,8.9
2023-05-03T05:28:10.994Z,9
2023-05-03T05:29:12.688Z,9
2023-05-03T05:30:13.655Z,9.1
2023-05-03T05:31:14.719Z,9
2023-05-03T05:32:15.632Z,8.9
2023-05-03T05:33:18.325Z,8.8
2023-05-03T05:34:17.679Z,8.7
2023-05-03T05:35:18.629Z,8.7
2023-05-03T05:36:20.224Z,8.8
2023-05-03T05:37:21.755Z,8.8
2023-05-03T05:38:22.933Z,8.9
2023-05-03T05:39:23.665Z,8.8
2023-05-03T05:40:24.685Z,8.8
2023-05-03T05:41:25.710Z,8.8
2023-05-03T05:42:26.887Z,8.8
2023-05-03T05:43:27.654Z,8.8
2023-05-03T05:44:29.442Z,8.8
2023-05-03T05:45:30.661Z,8.9
2023-05-03T05:46:31.704Z,8.9
2023-05-03T05:47:32.689Z,9
2023-05-03T05:48:33.671Z,9.1
2023-05-03T05:49:34.695Z,9.1
2023-05-03T05:50:35.611Z,9.2
2023-05-03T05:51:36.833Z,9.2
2023-05-03T05:52:38.658Z,9.3
2023-05-03T05:53:39.794Z,9.2
2023-05-03T05:54:40.674Z,9.3
2023-05-03T05:55:41.654Z,9.3
2023-05-03T05:56:42.800Z,9.4
2023-05-03T05:57:43.677Z,9.4
2023-05-03T05:58:44.679Z,9.4
2023-05-03T05:59:45.622Z,9.5
2023-05-03T06:00:46.658Z,9.5
2023-05-03T06:01:50.744Z,9.6
2023-05-03T06:02:51.836Z,9.7
2023-05-03T06:03:52.734Z,9.7
2023-05-03T06:04:54.728Z,9.8
2023-05-03T06:05:56.779Z,9.9
2023-05-03T06:06:57.634Z,9.9
2023-05-03T06:07:58.676Z,9.8
2023-05-03T06:09:01.247Z,9.9
2023-05-03T06:10:00.770Z,9.9
2023-05-03T06:11:01.685Z,9.9
2023-05-03T06:12:02.763Z,10
2023-05-03T06:13:03.772Z,10
2023-05-03T06:14:04.677Z,10.1
2023-05-03T06:15:06.339Z,10.2
2023-05-03T06:16:07.734Z,10.3
2023-05-03T06:17:08.671Z,10.3
2023-05-03T06:18:09.793Z,10.4
2023-05-03T06:19:10.640Z,10.4
2023-05-03T06:20:11.674Z,10.5
2023-05-03T06:21:12.661Z,10.6
2023-05-03T06:22:13.677Z,10.6
2023-05-03T06:23:14.749Z,10.4
2023-05-03T06:24:15.665Z,10.4
2023-05-03T06:25:17.939Z,10.5
2023-05-03T06:26:18.718Z,10.5
2023-05-03T06:27:19.689Z,10.6
2023-05-03T06:28:20.683Z,10.7
2023-05-03T06:29:21.666Z,10.8
2023-05-03T06:30:22.726Z,11
2023-05-03T06:31:23.743Z,11
2023-05-03T06:32:25.237Z,10.8
2023-05-03T06:33:26.715Z,10.8
2023-05-03T06:34:27.697Z,10.9
2023-05-03T06:35:28.695Z,11
2023-05-03T06:36:29.658Z,11.2
2023-05-03T06:37:31.672Z,11.3
2023-05-03T06:38:32.748Z,11.4
2023-05-03T06:39:33.695Z,11.4
2023-05-03T06:40:35.964Z,11.5
2023-05-03T06:41:35.678Z,11.6
2023-05-03T06:42:36.717Z,11.6
2023-05-03T06:43:37.742Z,11.8
2023-05-03T06:44:38.716Z,11.6
2023-05-03T06:45:40.137Z,11.5
2023-05-03T06:46:41.733Z,11.5
2023-05-03T06:47:43.266Z,11.5
2023-05-03T06:48:43.727Z,11.5
2023-05-03T06:49:44.695Z,11.6
2023-05-03T06:50:45.697Z,11.7
2023-05-03T06:51:46.741Z,11.8
2023-05-03T06:52:47.695Z,11.8
2023-05-03T06:53:48.713Z,11.9
2023-05-03T06:54:49.685Z,11.9
2023-05-03T06:55:50.723Z,12.1
2023-05-03T06:56:51.777Z,12.1
2023-05-03T06:57:52.656Z,12.2
2023-05-03T06:58:53.720Z,12.2
2023-05-03T06:59:54.664Z,12
2023-05-03T07:00:55.667Z,12
2023-05-03T07:01:56.719Z,12
2023-05-03T07:02:57.749Z,12
2023-05-03T07:03:58.733Z,12.1
2023-05-03T07:04:59.650Z,12.2
2023-05-03T07:06:00.678Z,12.2
2023-05-03T07:07:01.881Z,12.2
2023-05-03T07:08:02.735Z,12.3
2023-05-03T07:09:03.646Z,12.4
2023-05-03T07:10:05.315Z,12.4
2023-05-03T07:11:05.640Z,12.3
2023-05-03T07:12:06.684Z,12
2023-05-03T07:13:07.750Z,11.8
2023-05-03T07:14:08.737Z,11.9
2023-05-03T07:15:09.826Z,11.9
2023-05-03T07:16:11.228Z,12
2023-05-03T07:17:12.673Z,12.1
2023-05-03T07:18:13.779Z,12.3
2023-05-03T07:19:14.700Z,12.4
2023-05-03T07:20:15.716Z,12.6
2023-05-03T07:21:16.717Z,12.7
2023-05-03T07:22:17.717Z,12.8
2023-05-03T07:23:18.756Z,12.9
2023-05-03T07:24:19.759Z,13
2023-05-03T07:25:22.327Z,12.9
2023-05-03T07:26:23.712Z,12.9
2023-05-03T07:27:24.952Z,12.9
2023-05-03T07:28:26.873Z,12.8
2023-05-03T07:29:27.793Z,12.7
2023-05-03T07:30:29.026Z,12.8
2023-05-03T07:31:29.737Z,12.7
2023-05-03T07:32:30.825Z,12.6
2023-05-03T07:33:32.163Z,12.7
2023-05-03T07:34:32.766Z,12.8
2023-05-03T07:35:33.701Z,12.9
2023-05-03T07:36:34.797Z,13
2023-05-03T07:37:35.701Z,13.1
2023-05-03T07:38:36.717Z,13.1
2023-05-03T07:39:37.890Z,13.3
2023-05-03T07:40:38.693Z,13.2
2023-05-03T07:41:40.673Z,13.3
2023-05-03T07:42:41.811Z,13.5
2023-05-03T07:43:42.765Z,13.5
2023-05-03T07:44:43.942Z,13.6
2023-05-03T07:45:44.773Z,13.6
2023-05-03T07:46:45.816Z,13.6
2023-05-03T07:47:46.684Z,13.7
2023-05-03T07:48:47.755Z,13.7
2023-05-03T07:49:48.712Z,13.7
2023-05-03T07:50:49.750Z,13.7
2023-05-03T07:51:51.021Z,13.8
2023-05-03T07:52:51.724Z,13.7
2023-05-03T07:53:58.752Z,13.6
2023-05-03T07:54:59.716Z,13.7
2023-05-03T07:56:00.734Z,13.7
2023-05-03T07:57:01.784Z,13.7
2023-05-03T07:58:02.851Z,13.7
2023-05-03T07:59:09.722Z,13.8
2023-05-03T08:00:06.374Z,13.7
2023-05-03T08:01:07.889Z,13.7
2023-05-03T08:02:09.477Z,13.7
2023-05-03T08:03:10.843Z,13.7
2023-05-03T08:04:12.946Z,13.7
2023-05-03T08:05:14.500Z,13.7
2023-05-03T08:06:16.715Z,13.7
2023-05-03T08:07:17.730Z,13.7
2023-05-03T08:08:19.294Z,13.7
2023-05-03T08:09:20.751Z,13.8
2023-05-03T08:10:22.151Z,13.9
2023-05-03T08:11:23.720Z,13.9
2023-05-03T08:12:24.757Z,13.9
2023-05-03T08:13:25.768Z,13.8
2023-05-03T08:14:27.080Z,13.9
2023-05-03T08:15:28.772Z,14
2023-05-03T08:16:30.904Z,14.1
2023-05-03T08:17:32.822Z,14.1
2023-05-03T08:18:33.771Z,14.1
2023-05-03T08:19:34.702Z,14
2023-05-03T08:20:35.755Z,14.1
2023-05-03T08:21:36.751Z,14.2
2023-05-03T08:22:38.375Z,14.4
2023-05-03T08:23:39.788Z,14.6
2023-05-03T08:24:40.737Z,14.8
2023-05-03T08:25:41.977Z,14.8
2023-05-03T08:26:42.818Z,14.7
2023-05-03T08:27:43.761Z,14.7
2023-05-03T08:28:44.749Z,14.6
2023-05-03T08:29:45.841Z,14.4
2023-05-03T08:30:46.786Z,14.4
2023-05-03T08:31:47.855Z,14.3
2023-05-03T08:32:48.853Z,14.3
2023-05-03T08:33:49.749Z,14.2
2023-05-03T08:34:50.836Z,14.1
2023-05-03T08:35:51.756Z,13.9
2023-05-03T08:36:52.725Z,13.8
2023-05-03T08:37:53.738Z,13.7
2023-05-03T08:38:54.783Z,13.7
2023-05-03T08:39:55.798Z,13.8
2023-05-03T08:40:57.019Z,13.7
2023-05-03T08:41:58.813Z,13.7
2023-05-03T08:42:59.955Z,13.7
2023-05-03T08:44:00.798Z,13.7
2023-05-03T08:45:01.872Z,13.8
2023-05-03T08:46:03.941Z,13.9
2023-05-03T08:47:05.141Z,13.9
2023-05-03T08:48:05.938Z,14
2023-05-03T08:49:06.722Z,14
2023-05-03T08:50:07.756Z,14.1
2023-05-03T08:51:08.752Z,14.2
2023-05-03T08:52:09.798Z,14.3
2023-05-03T08:53:10.714Z,14.3
2023-05-03T08:54:11.952Z,14.4
2023-05-03T08:55:13.215Z,14.5
2023-05-03T08:56:14.851Z,14.6
2023-05-03T08:57:15.871Z,14.7
2023-05-03T08:58:17.057Z,14.8
2023-05-03T08:59:19.357Z,14.7
2023-05-03T09:00:20.851Z,14.8
2023-05-03T09:01:22.129Z,14.8
2023-05-03T09:02:22.914Z,14.8
2023-05-03T09:03:23.794Z,14.9
2023-05-03T09:04:24.866Z,15
2023-05-03T09:05:25.736Z,15
2023-05-03T09:06:26.802Z,15
2023-05-03T09:07:28.012Z,15
2023-05-03T09:08:28.711Z,14.9
2023-05-03T09:09:30.070Z,15
2023-05-03T09:10:31.535Z,15.1
2023-05-03T09:11:32.808Z,14.9
2023-05-03T09:12:33.721Z,14.9
2023-05-03T09:13:34.811Z,14.9
2023-05-03T09:14:35.740Z,15
2023-05-03T09:15:36.768Z,15
2023-05-03T09:16:38.146Z,15.2
2023-05-03T09:17:39.815Z,15.3
2023-05-03T09:18:41.110Z,15.4
2023-05-03T09:19:42.835Z,15.6
2023-05-03T09:20:43.793Z,15.8
2023-05-03T09:21:44.752Z,15.9
2023-05-03T09:22:45.872Z,15.9
2023-05-03T09:23:46.792Z,15.9
2023-05-03T09:24:47.811Z,15.8
2023-05-03T09:25:49.378Z,15.7
2023-05-03T09:26:50.814Z,15.7
2023-05-03T09:27:51.757Z,15.6
2023-05-03T09:28:53.151Z,15.6
2023-05-03T09:29:54.967Z,15.5
2023-05-03T09:30:55.765Z,15.5
2023-05-03T09:31:56.956Z,15.6
2023-05-03T09:32:57.816Z,15.7
2023-05-03T09:34:03.816Z,15.9
2023-05-03T09:35:04.998Z,16.1
2023-05-03T09:36:06.696Z,16.2
2023-05-03T09:37:07.740Z,16.2
2023-05-03T09:38:08.826Z,16.3
2023-05-03T09:39:09.837Z,16.3
2023-05-03T09:40:10.763Z,16.3
2023-05-03T09:41:11.929Z,16.4
2023-05-03T09:42:12.967Z,16.3
2023-05-03T09:43:15.502Z,16.3
2023-05-03T09:44:16.991Z,16.3
2023-05-03T09:45:18.855Z,16.3
2023-05-03T09:46:19.980Z,16.4
2023-05-03T09:47:21.928Z,16.4
2023-05-03T09:48:22.801Z,16.4
2023-05-03T09:49:23.861Z,16.3
2023-05-03T09:50:24.955Z,16.3
2023-05-03T09:51:25.858Z,16.3
2023-05-03T09:52:26.832Z,16.4
2023-05-03T09:53:28.097Z,16.5
2023-05-03T09:54:29.785Z,16.4
2023-05-03T09:55:30.792Z,16.3
2023-05-03T09:56:31.822Z,16.1
2023-05-03T09:57:32.832Z,16.1
2023-05-03T09:58:33.845Z,16
2023-05-03T09:59:36.351Z,15.8
2023-05-03T10:00:37.956Z,15.9
2023-05-03T10:01:39.023Z,16
2023-05-03T10:02:39.995Z,16.2
2023-05-03T10:03:40.786Z,16.4
2023-05-03T10:04:42.016Z,16.5
2023-05-03T10:05:43.858Z,16.6
2023-05-03T10:06:44.781Z,16.8
2023-05-03T10:07:45.771Z,16.9
2023-05-03T10:08:46.816Z,17
2023-05-03T10:09:47.805Z,17.2
2023-05-03T10:10:48.902Z,17.1
2023-05-03T10:11:49.769Z,17
2023-05-03T10:12:50.805Z,17
2023-05-03T10:13:52.116Z,17
2023-05-03T10:14:54.373Z,17.1
2023-05-03T10:15:55.878Z,17
2023-05-03T10:16:56.813Z,17
2023-05-03T10:17:57.866Z,16.8
2023-05-03T10:18:58.796Z,16.8
2023-05-03T10:19:59.834Z,16.8
2023-05-03T10:21:00.808Z,16.9
2023-05-03T10:22:01.852Z,17
2023-05-03T10:23:02.855Z,17
2023-05-03T10:24:03.776Z,17
2023-05-03T10:25:05.107Z,17
2023-05-03T10:26:05.794Z,16.9
2023-05-03T10:27:06.814Z,16.8
2023-05-03T10:28:07.881Z,16.7
2023-05-03T10:29:08.891Z,16.7
2023-05-03T10:30:09.834Z,16.6
2023-05-03T10:31:10.832Z,16.7
2023-05-03T10:32:11.845Z,16.7
2023-05-03T10:33:13.779Z,16.5
2023-05-03T10:34:14.781Z,16.3
2023-05-03T10:35:15.769Z,16.1
2023-05-03T10:36:16.769Z,16
2023-05-03T10:37:17.954Z,15.8
2023-05-03T10:38:19.848Z,15.7
2023-05-03T10:39:20.772Z,15.7
2023-05-03T10:40:21.830Z,15.7
2023-05-03T10:41:22.866Z,15.6
2023-05-03T10:42:23.874Z,15.6
2023-05-03T10:43:24.824Z,15.5
2023-05-03T10:44:25.823Z,15.3
2023-05-03T10:45:26.829Z,15.4
2023-05-03T10:46:27.866Z,15.5
2023-05-03T10:47:28.838Z,15.6
2023-05-03T10:48:29.992Z,15.7
2023-05-03T10:49:31.808Z,15.8
2023-05-03T10:50:32.803Z,15.8
2023-05-03T10:51:34.064Z,16
2023-05-03T10:52:34.826Z,16.2
2023-05-03T10:53:35.790Z,16.4
2023-05-03T10:54:36.794Z,16.4
2023-05-03T10:55:38.149Z,16.6
2023-05-03T10:56:39.843Z,16.9
2023-05-03T10:57:41.531Z,17.1
2023-05-03T10:58:42.885Z,17.2
2023-05-03T10:59:43.807Z,17.3
2023-05-03T11:00:44.910Z,17.4
2023-05-03T11:01:45.883Z,17.3
2023-05-03T11:02:46.853Z,17.4
2023-05-03T11:03:48.764Z,17.4
2023-05-03T11:04:49.841Z,17.4
2023-05-03T11:05:50.829Z,17.4
2023-05-03T11:06:52.194Z,17.4
2023-05-03T11:07:52.841Z,17.4
2023-05-03T11:08:53.813Z,17.5
2023-05-03T11:09:54.873Z,17.6
2023-05-03T11:10:55.889Z,17.6
2023-05-03T11:11:56.844Z,17.6
2023-05-03T11:12:57.851Z,17.7
2023-05-03T11:13:59.046Z,17.7
2023-05-03T11:15:00.993Z,17.9
2023-05-03T11:16:02.168Z,17.8
2023-05-03T11:17:03.927Z,17.8
2023-05-03T11:18:05.260Z,17.7
2023-05-03T11:19:06.817Z,17.8
2023-05-03T11:20:07.816Z,17.9
2023-05-03T11:21:08.823Z,17.9
2023-05-03T11:22:09.857Z,17.8
2023-05-03T11:23:10.807Z,17.7
2023-05-03T11:24:11.789Z,17.8
2023-05-03T11:25:12.830Z,17.7
2023-05-03T11:26:13.973Z,17.6
2023-05-03T11:27:14.794Z,17.3
2023-05-03T11:28:15.869Z,17.1
2023-05-03T11:29:16.808Z,17.1
2023-05-03T11:30:17.797Z,17.3
2023-05-03T11:31:18.825Z,17.4
2023-05-03T11:32:20.097Z,17.5
2023-05-03T11:33:20.836Z,17.7
2023-05-03T11:34:21.897Z,17.8
2023-05-03T11:35:22.923Z,17.9
2023-05-03T11:36:24.101Z,18
2023-05-03T11:37:25.795Z,18.2
2023-05-03T11:38:26.829Z,18.2
2023-05-03T11:39:28.022Z,18.3
2023-05-03T11:40:28.829Z,18.6
2023-05-03T11:41:29.865Z,18.7
2023-05-03T11:42:30.844Z,18.9
2023-05-03T11:43:31.872Z,19.1
2023-05-03T11:44:33.476Z,19.4
2023-05-03T11:45:35.136Z,19.7
2023-05-03T11:46:36.482Z,19.9
2023-05-03T11:47:38.080Z,20.1
2023-05-03T11:48:39.399Z,20.3
2023-05-03T11:49:43.999Z,20.4
2023-05-03T11:50:45.095Z,20.1
2023-05-03T11:51:47.995Z,20
2023-05-03T11:52:46.841Z,20
2023-05-03T11:53:47.906Z,20
2023-05-03T11:54:48.872Z,20.1
2023-05-03T11:55:49.897Z,20.1
2023-05-03T11:56:52.668Z,20.3
2023-05-03T11:57:52.859Z,20.3
2023-05-03T11:58:53.932Z,20.3
2023-05-03T11:59:54.870Z,20.2
2023-05-03T12:00:55.879Z,19.7
2023-05-03T12:01:56.863Z,19
2023-05-03T12:02:57.979Z,18.7
2023-05-03T12:03:59.126Z,18.8
2023-05-03T12:05:00.047Z,18.7
2023-05-03T12:06:02.417Z,18.8
2023-05-03T12:07:02.914Z,18.9
2023-05-03T12:08:03.062Z,19
2023-05-03T12:09:04.066Z,19
2023-05-03T12:11:06.416Z,18.9
2023-05-03T12:12:09.371Z,18.9
2023-05-03T12:13:09.144Z,18.8
2023-05-03T12:14:10.238Z,18.8
2023-05-03T12:15:11.392Z,18.7
2023-05-03T12:16:13.290Z,18.6
2023-05-03T12:17:11.927Z,18.4
2023-05-03T12:18:13.099Z,18.2
2023-05-03T12:19:16.183Z,18
2023-05-03T12:22:25.545Z,17.7
2023-05-03T12:23:19.078Z,17.7
2023-05-03T12:25:21.396Z,17.9
2023-05-03T12:26:21.957Z,18.1
2023-05-03T12:27:23.845Z,18.1
2023-05-03T12:28:24.180Z,18.3
2023-05-03T12:29:25.240Z,18.5
2023-05-03T12:30:28.846Z,18.7
2023-05-03T12:31:29.231Z,18.9
2023-05-03T12:32:29.010Z,19
2023-05-03T12:33:31.589Z,19
2023-05-03T12:34:34.467Z,19.1
2023-05-03T12:35:33.749Z,19.2
2023-05-03T12:36:36.193Z,19.5
2023-05-03T12:37:33.938Z,19.6
2023-05-03T12:38:37.429Z,19.7
2023-05-03T12:39:39.468Z,19.6
2023-05-03T12:40:37.166Z,19.6
2023-05-03T12:42:42.798Z,19.7
2023-05-03T12:43:43.452Z,19.8
2023-05-03T12:44:42.997Z,19.8
2023-05-03T12:45:46.471Z,19.9
2023-05-03T12:46:45.336Z,19.9
2023-05-03T12:47:45.099Z,19.8
2023-05-03T12:48:46.766Z,19.7
2023-05-03T12:49:47.160Z,19.7
2023-05-03T12:50:50.625Z,19.5
2023-05-03T12:51:54.623Z,19.5
2023-05-03T12:52:52.489Z,19.4
2023-05-03T12:53:54.271Z,19.5
2023-05-03T12:54:55.169Z,19.7
2023-05-03T12:55:52.980Z,19.7
2023-05-03T12:56:55.379Z,19.8
2023-05-03T12:58:17.163Z,20.1
2023-05-03T12:59:14.077Z,20.3
2023-05-03T13:05:07.706Z,21.1
2023-05-03T13:06:11.636Z,21.3
2023-05-03T13:09:07.125Z,21.2
2023-05-03T13:11:08.989Z,20.4
2023-05-03T13:12:10.061Z,20.1
2023-05-03T13:13:10.905Z,20
2023-05-03T13:14:11.892Z,19.8
2023-05-03T13:15:12.973Z,19.7
2023-05-03T13:16:13.955Z,19.6
2023-05-03T13:17:14.929Z,19.2
2023-05-03T13:18:15.907Z,19
2023-05-03T13:19:16.888Z,18.8
2023-05-03T13:20:17.987Z,18.8
2023-05-03T13:21:19.004Z,18.7
2023-05-03T13:22:19.935Z,18.6
2023-05-03T13:23:20.904Z,18.7
2023-05-03T13:24:21.886Z,18.8
2023-05-03T13:25:22.888Z,18.9
2023-05-03T13:26:23.977Z,19.1
2023-05-03T13:27:24.900Z,19.3
2023-05-03T13:28:25.882Z,19.5
2023-05-03T13:29:26.993Z,19.7
2023-05-03T13:30:27.945Z,19.8
2023-05-03T13:31:28.930Z,20
2023-05-03T13:32:30.024Z,20.1
2023-05-03T13:33:30.921Z,20.2
2023-05-03T13:34:31.904Z,20.3
2023-05-03T13:35:32.964Z,20.4
2023-05-03T13:36:34.052Z,20.3
2023-05-03T13:37:34.992Z,19.5
2023-05-03T13:38:35.979Z,18.8
2023-05-03T13:39:38.196Z,18.4
2023-05-03T13:40:38.937Z,18.5
2023-05-03T13:41:39.970Z,18.7
2023-05-03T13:42:40.912Z,18.9
2023-05-03T13:43:41.949Z,19
2023-05-03T13:44:42.910Z,19.2
2023-05-03T13:45:44.067Z,19
2023-05-03T13:46:44.943Z,18.7
2023-05-03T13:48:46.999Z,19
2023-05-03T13:49:47.929Z,19.2
2023-05-03T13:50:49.023Z,19.5
2023-05-03T13:51:50.169Z,19.6
2023-05-03T13:52:50.906Z,19.7
2023-05-03T13:53:51.909Z,19.8
2023-05-03T13:54:53.264Z,19.9
2023-05-03T13:55:53.931Z,20.1
2023-05-03T13:56:54.981Z,20.2
2023-05-03T13:57:55.913Z,20.2
2023-05-03T13:58:56.941Z,20.4
2023-05-03T13:59:57.899Z,20.6
2023-05-03T14:00:58.976Z,20.6
2023-05-03T14:02:00.175Z,20.7